createdAt,value
2018-12-15T00:00:28.784Z,72.30
2018-12-15T00:01:32.275Z,72.20
2018-12-15T00:02:35.476Z,72.20
2018-12-15T00:03:38.787Z,72.20
2018-12-15T00:04:42.020Z,72.20
2018-12-15T00:05:45.260Z,72.40
2018-12-15T00:06:48.766Z,72.40
2018-12-15T00:07:52.034Z,72.40
2018-12-15T00:08:55.321Z,72.40
2018-12-15T00:09:58.552Z,72.40
2018-12-15T00:11:01.906Z,72.50
2018-12-15T00:12:05.128Z,72.40
2018-12-15T00:13:08.396Z,72.40
2018-12-15T00:14:11.645Z,72.30
2018-12-15T00:15:14.891Z,72.30
2018-12-15T00:16:18.198Z,72.10
2018-12-15T00:17:21.513Z,72.00
2018-12-15T00:18:25.559Z,72.10
2018-12-15T00:19:28.810Z,73.00
2018-12-15T00:20:32.054Z,72.10
2018-12-15T00:21:35.392Z,72.20
2018-12-15T00:22:38.681Z,72.20
2018-12-15T00:23:42.528Z,72.30
2018-12-15T00:24:45.780Z,72.20
2018-12-15T00:25:49.047Z,72.20
2018-12-15T00:26:52.391Z,72.10
2018-12-15T00:27:55.769Z,72.10
2018-12-15T00:28:59.026Z,72.00
2018-12-15T00:30:02.248Z,72.00
2018-12-15T00:31:05.523Z,72.00
2018-12-15T00:32:08.829Z,72.10
2018-12-15T00:33:12.074Z,72.10
2018-12-15T00:34:15.347Z,72.10
2018-12-15T00:35:18.681Z,72.00
2018-12-15T00:36:21.950Z,72.10
2018-12-15T00:37:25.293Z,71.90
2018-12-15T00:38:28.565Z,72.10
2018-12-15T00:39:31.906Z,72.10
2018-12-15T00:40:35.257Z,72.90
2018-12-15T00:41:38.489Z,72.00
2018-12-15T00:42:41.720Z,72.00
2018-12-15T00:43:44.972Z,72.00
2018-12-15T00:44:48.342Z,71.90
2018-12-15T00:45:52.055Z,71.90
2018-12-15T00:46:55.307Z,72.00
2018-12-15T00:47:58.667Z,72.00
2018-12-15T00:49:01.958Z,72.00
2018-12-15T00:50:05.310Z,72.00
2018-12-15T00:51:08.622Z,71.90
2018-12-15T00:52:11.898Z,71.80
2018-12-15T00:53:15.251Z,71.80
2018-12-15T00:54:18.567Z,71.80
2018-12-15T00:55:21.910Z,71.90
2018-12-15T00:56:25.195Z,71.80
2018-12-15T00:57:28.438Z,71.80
2018-12-15T00:58:31.714Z,71.80
2018-12-15T00:59:34.957Z,71.90
2018-12-15T01:00:38.189Z,71.90
2018-12-15T01:01:41.444Z,71.90
2018-12-15T01:02:44.680Z,72.60
2018-12-15T01:03:48.030Z,71.90
2018-12-15T01:04:53.172Z,72.60
2018-12-15T01:05:56.437Z,71.80
2018-12-15T01:06:59.724Z,71.70
2018-12-15T01:08:03.042Z,71.70
2018-12-15T01:09:06.395Z,71.80
2018-12-15T01:10:09.694Z,71.70
2018-12-15T01:11:12.957Z,71.90
2018-12-15T01:12:16.324Z,71.90
2018-12-15T01:13:19.674Z,71.90
2018-12-15T01:14:23.016Z,71.90
2018-12-15T01:15:31.846Z,71.90
2018-12-15T01:16:35.183Z,71.90
2018-12-15T01:17:38.463Z,71.90
2018-12-15T01:18:41.683Z,72.00
2018-12-15T01:19:45.216Z,72.10
2018-12-15T01:20:48.452Z,72.10
2018-12-15T01:21:51.710Z,72.10
2018-12-15T01:22:54.948Z,72.10
2018-12-15T01:23:58.418Z,72.20
2018-12-15T01:25:01.657Z,72.30
2018-12-15T01:26:04.915Z,72.20
2018-12-15T01:27:08.248Z,72.30
2018-12-15T01:28:11.488Z,72.30
2018-12-15T01:29:14.835Z,72.10
2018-12-15T01:30:18.116Z,72.10
2018-12-15T01:31:21.437Z,72.10
2018-12-15T01:32:24.719Z,72.10
2018-12-15T01:33:27.904Z,72.10
2018-12-15T01:34:31.204Z,72.20
2018-12-15T01:35:34.431Z,72.20
2018-12-15T01:36:37.664Z,72.20
2018-12-15T01:37:40.914Z,72.20
2018-12-15T01:38:44.234Z,72.10
2018-12-15T01:39:47.502Z,72.10
2018-12-15T01:40:50.775Z,72.20
2018-12-15T01:41:54.009Z,72.20
2018-12-15T01:42:57.264Z,72.30
2018-12-15T01:44:00.582Z,72.10
2018-12-15T01:45:04.640Z,72.10
2018-12-15T01:46:07.944Z,72.10
2018-12-15T01:47:11.178Z,72.30
2018-12-15T01:48:14.409Z,72.20
2018-12-15T01:49:17.687Z,72.20
2018-12-15T01:50:20.927Z,72.30
2018-12-15T01:51:24.960Z,72.30
2018-12-15T01:52:28.162Z,72.20
2018-12-15T01:53:31.471Z,72.30
2018-12-15T01:54:34.805Z,72.30
2018-12-15T01:55:38.024Z,72.30
2018-12-15T01:56:41.265Z,72.30
2018-12-15T01:57:44.512Z,72.30
2018-12-15T01:58:47.796Z,72.30
2018-12-15T01:59:51.043Z,72.30
2018-12-15T02:00:54.277Z,72.20
2018-12-15T02:01:57.520Z,72.20
2018-12-15T02:03:00.748Z,72.30
2018-12-15T02:04:04.011Z,72.30
2018-12-15T02:05:07.362Z,72.10
2018-12-15T02:06:16.629Z,72.00
2018-12-15T02:07:26.346Z,72.00
2018-12-15T02:08:29.691Z,72.10
2018-12-15T02:09:33.028Z,72.00
2018-12-15T02:10:36.271Z,72.10
2018-12-15T02:11:39.606Z,72.00
2018-12-15T02:12:42.944Z,71.80
2018-12-15T02:13:46.239Z,71.80
2018-12-15T02:14:49.478Z,71.90
2018-12-15T02:15:52.836Z,71.60
2018-12-15T02:16:56.081Z,71.70
2018-12-15T02:17:59.332Z,71.70
2018-12-15T02:19:02.577Z,71.80
2018-12-15T02:20:06.117Z,71.90
2018-12-15T02:21:09.395Z,71.80
2018-12-15T02:22:12.714Z,71.90
2018-12-15T02:23:16.024Z,71.90
2018-12-15T02:24:19.265Z,71.90
2018-12-15T02:25:22.521Z,72.00
2018-12-15T02:26:25.803Z,72.10
2018-12-15T02:27:29.023Z,72.00
2018-12-15T02:28:32.285Z,71.90
2018-12-15T02:29:35.571Z,72.00
2018-12-15T02:30:38.798Z,72.00
2018-12-15T02:31:43.343Z,71.90
2018-12-15T02:32:46.610Z,72.00
2018-12-15T02:33:49.828Z,71.90
2018-12-15T02:34:53.076Z,71.90
2018-12-15T02:35:56.383Z,72.00
2018-12-15T02:36:59.598Z,71.90
2018-12-15T02:38:02.951Z,72.00
2018-12-15T02:39:06.607Z,72.10
2018-12-15T02:40:09.848Z,72.10
2018-12-15T02:41:13.099Z,72.10
2018-12-15T02:42:16.540Z,72.30
2018-12-15T02:43:19.823Z,72.30
2018-12-15T02:44:23.073Z,72.30
2018-12-15T02:45:26.572Z,72.30
2018-12-15T02:46:29.826Z,72.30
2018-12-15T02:47:33.091Z,72.30
2018-12-15T02:48:37.317Z,72.40
2018-12-15T02:49:40.555Z,72.40
2018-12-15T02:50:43.780Z,72.30
2018-12-15T02:51:47.051Z,72.40
2018-12-15T02:52:50.343Z,72.30
2018-12-15T02:53:53.596Z,72.30
2018-12-15T02:54:56.872Z,72.10
2018-12-15T02:56:00.209Z,72.10
2018-12-15T02:57:03.689Z,72.10
2018-12-15T02:58:06.951Z,72.10
2018-12-15T02:59:10.207Z,72.20
2018-12-15T03:00:13.525Z,72.30
2018-12-15T03:01:16.840Z,72.30
2018-12-15T03:02:20.105Z,72.20
2018-12-15T03:03:23.330Z,72.30
2018-12-15T03:04:26.649Z,72.30
2018-12-15T03:05:29.897Z,72.30
2018-12-15T03:06:33.142Z,72.10
2018-12-15T03:07:36.399Z,72.00
2018-12-15T03:08:39.701Z,72.00
2018-12-15T03:09:43.034Z,72.00
2018-12-15T03:10:46.384Z,72.00
2018-12-15T03:11:49.625Z,72.10
2018-12-15T03:12:52.946Z,72.10
2018-12-15T03:13:56.197Z,73.00
2018-12-15T03:14:59.433Z,72.30
2018-12-15T03:16:02.792Z,72.20
2018-12-15T03:17:06.350Z,72.60
2018-12-15T03:18:09.648Z,72.10
2018-12-15T03:19:12.925Z,72.10
2018-12-15T03:20:16.234Z,72.10
2018-12-15T03:21:19.463Z,72.10
2018-12-15T03:22:22.704Z,72.10
2018-12-15T03:23:25.956Z,72.10
2018-12-15T03:24:29.292Z,72.20
2018-12-15T03:25:32.572Z,72.20
2018-12-15T03:26:35.812Z,72.30
2018-12-15T03:27:39.106Z,72.30
2018-12-15T03:28:42.526Z,72.10
2018-12-15T03:29:45.776Z,72.10
2018-12-15T03:30:49.131Z,72.30
2018-12-15T03:31:52.343Z,72.30
2018-12-15T03:32:55.592Z,72.30
2018-12-15T03:33:58.837Z,72.30
2018-12-15T03:35:02.156Z,72.40
2018-12-15T03:36:05.389Z,72.30
2018-12-15T03:37:08.629Z,72.30
2018-12-15T03:38:11.880Z,72.40
2018-12-15T03:39:15.139Z,72.50
2018-12-15T03:40:18.402Z,72.40
2018-12-15T03:41:21.763Z,72.40
2018-12-15T03:42:24.999Z,72.50
2018-12-15T03:43:28.244Z,72.60
2018-12-15T03:44:31.550Z,72.60
2018-12-15T03:45:34.834Z,72.60
2018-12-15T03:46:38.116Z,72.50
2018-12-15T03:47:41.393Z,72.50
2018-12-15T03:48:44.616Z,72.60
2018-12-15T03:49:47.881Z,72.60
2018-12-15T03:50:51.119Z,72.60
2018-12-15T03:51:54.367Z,72.60
2018-12-15T03:52:57.621Z,72.50
2018-12-15T03:54:00.920Z,72.40
2018-12-15T03:55:04.203Z,72.40
2018-12-15T03:56:07.454Z,72.40
2018-12-15T03:57:10.694Z,72.40
2018-12-15T03:58:13.939Z,72.30
2018-12-15T03:59:17.452Z,72.40
2018-12-15T04:00:20.717Z,72.30
2018-12-15T04:01:23.973Z,72.40
2018-12-15T04:02:27.282Z,72.40
2018-12-15T04:03:30.596Z,72.40
2018-12-15T04:04:34.047Z,72.40
2018-12-15T04:05:37.287Z,72.40
2018-12-15T04:06:40.539Z,72.30
2018-12-15T04:07:43.833Z,72.40
2018-12-15T04:08:47.086Z,72.40
2018-12-15T04:09:50.337Z,72.10
2018-12-15T04:10:53.596Z,72.10
2018-12-15T04:11:56.869Z,72.10
2018-12-15T04:13:00.730Z,72.80
2018-12-15T04:14:04.055Z,72.10
2018-12-15T04:15:07.374Z,72.40
2018-12-15T04:16:11.365Z,72.10
2018-12-15T04:17:14.633Z,72.10
2018-12-15T04:18:18.145Z,72.30
2018-12-15T04:19:21.452Z,72.10
2018-12-15T04:20:25.363Z,72.30
2018-12-15T04:21:28.636Z,72.40
2018-12-15T04:22:31.885Z,72.40
2018-12-15T04:23:35.310Z,73.10
2018-12-15T04:24:38.557Z,72.50
2018-12-15T04:25:41.896Z,72.60
2018-12-15T04:26:45.178Z,73.40
2018-12-15T04:27:48.421Z,72.60
2018-12-15T04:28:51.665Z,72.60
2018-12-15T04:29:54.910Z,72.70
2018-12-15T04:30:58.161Z,72.60
2018-12-15T04:32:01.408Z,72.60
2018-12-15T04:33:05.489Z,72.60
2018-12-15T04:34:08.733Z,72.60
2018-12-15T04:35:12.151Z,72.50
2018-12-15T04:36:16.453Z,72.30
2018-12-15T04:37:19.710Z,72.20
2018-12-15T04:38:22.982Z,72.20
2018-12-15T04:39:26.231Z,72.10
2018-12-15T04:40:29.664Z,72.10
2018-12-15T04:41:32.905Z,72.00
2018-12-15T04:42:36.141Z,72.00
2018-12-15T04:43:39.464Z,71.90
2018-12-15T04:44:43.112Z,71.90
2018-12-15T04:45:46.382Z,71.80
2018-12-15T04:46:49.684Z,71.90
2018-12-15T04:47:52.936Z,72.00
2018-12-15T04:48:56.188Z,71.90
2018-12-15T04:49:59.417Z,71.90
2018-12-15T04:51:02.675Z,71.90
2018-12-15T04:52:06.241Z,71.90
2018-12-15T04:53:09.786Z,71.90
2018-12-15T04:54:13.048Z,71.90
2018-12-15T04:55:16.303Z,71.90
2018-12-15T04:56:19.580Z,71.90
2018-12-15T04:57:22.815Z,71.90
2018-12-15T04:58:26.044Z,72.00
2018-12-15T04:59:29.301Z,72.00
2018-12-15T05:00:32.567Z,72.00
2018-12-15T05:01:35.801Z,72.00
2018-12-15T05:02:43.859Z,72.00
2018-12-15T05:03:44.252Z,72.00
2018-12-15T05:04:47.512Z,72.00
2018-12-15T05:05:50.768Z,72.10
2018-12-15T05:06:54.006Z,72.00
2018-12-15T05:07:57.371Z,72.00
2018-12-15T05:09:00.625Z,72.10
2018-12-15T05:10:05.201Z,72.10
2018-12-15T05:11:08.468Z,72.30
2018-12-15T05:12:11.798Z,72.20
2018-12-15T05:13:15.038Z,72.20
2018-12-15T05:14:18.291Z,72.20
2018-12-15T05:15:21.539Z,72.20
2018-12-15T05:16:24.784Z,72.20
2018-12-15T05:17:28.082Z,72.20
2018-12-15T05:18:31.333Z,72.30
2018-12-15T05:19:34.592Z,72.30
2018-12-15T05:20:37.895Z,72.30
2018-12-15T05:21:41.242Z,72.30
2018-12-15T05:22:44.484Z,72.30
2018-12-15T05:23:47.796Z,72.30
2018-12-15T05:24:51.314Z,72.40
2018-12-15T05:25:54.588Z,72.40
2018-12-15T05:26:57.882Z,72.40
2018-12-15T05:28:01.164Z,72.30
2018-12-15T05:29:04.407Z,72.30
2018-12-15T05:30:07.801Z,72.30
2018-12-15T05:31:11.136Z,72.40
2018-12-15T05:32:14.451Z,72.40
2018-12-15T05:33:17.704Z,72.40
2018-12-15T05:34:20.956Z,71.90
2018-12-15T05:35:24.204Z,72.10
2018-12-15T05:36:27.453Z,72.10
2018-12-15T05:37:30.676Z,72.20
2018-12-15T05:38:33.955Z,72.20
2018-12-15T05:39:37.182Z,72.30
2018-12-15T05:40:40.405Z,72.10
2018-12-15T05:41:43.681Z,72.30
2018-12-15T05:42:46.922Z,72.10
2018-12-15T05:43:50.272Z,72.10
2018-12-15T05:44:53.525Z,72.10
2018-12-15T05:45:56.778Z,72.20
2018-12-15T05:47:00.037Z,72.10
2018-12-15T05:48:03.322Z,72.10
2018-12-15T05:49:06.585Z,72.00
2018-12-15T05:50:09.831Z,72.00
2018-12-15T05:51:13.096Z,72.10
2018-12-15T05:52:16.353Z,72.00
2018-12-15T05:53:19.590Z,72.10
2018-12-15T05:54:22.987Z,72.10
2018-12-15T05:55:26.232Z,72.20
2018-12-15T05:56:29.507Z,72.10
2018-12-15T05:57:32.756Z,72.10
2018-12-15T05:58:35.991Z,72.20
2018-12-15T05:59:39.235Z,73.00
2018-12-15T06:00:42.508Z,72.10
2018-12-15T06:01:45.749Z,72.20
2018-12-15T06:02:49.170Z,72.20
2018-12-15T06:03:52.428Z,72.10
2018-12-15T06:04:56.344Z,72.10
2018-12-15T06:05:59.619Z,72.00
2018-12-15T06:07:02.878Z,71.60
2018-12-15T06:08:06.132Z,72.00
2018-12-15T06:09:09.463Z,72.00
2018-12-15T06:10:12.773Z,72.10
2018-12-15T06:11:16.107Z,72.10
2018-12-15T06:12:19.394Z,72.10
2018-12-15T06:13:22.628Z,72.00
2018-12-15T06:14:25.896Z,72.00
2018-12-15T06:15:29.167Z,72.00
2018-12-15T06:16:32.398Z,72.00
2018-12-15T06:17:35.702Z,71.70
2018-12-15T06:18:38.949Z,71.70
2018-12-15T06:19:42.189Z,71.70
2018-12-15T06:20:45.424Z,71.40
2018-12-15T06:21:48.877Z,71.70
2018-12-15T06:22:52.120Z,71.60
2018-12-15T06:23:55.362Z,71.40
2018-12-15T06:24:58.589Z,71.40
2018-12-15T06:26:01.833Z,71.40
2018-12-15T06:27:05.085Z,71.40
2018-12-15T06:28:08.492Z,71.50
2018-12-15T06:29:11.714Z,71.40
2018-12-15T06:30:14.986Z,71.40
2018-12-15T06:31:18.213Z,71.50
2018-12-15T06:32:21.466Z,71.60
2018-12-15T06:33:24.790Z,71.40
2018-12-15T06:34:28.034Z,71.20
2018-12-15T06:35:31.270Z,71.10
2018-12-15T06:36:34.533Z,71.20
2018-12-15T06:37:37.768Z,71.00
2018-12-15T06:38:41.036Z,70.90
2018-12-15T06:39:44.269Z,71.10
2018-12-15T06:40:47.514Z,71.20
2018-12-15T06:41:50.778Z,71.10
2018-12-15T06:42:54.820Z,71.00
2018-12-15T06:43:58.196Z,70.90
2018-12-15T06:45:01.474Z,71.00
2018-12-15T06:46:04.946Z,71.00
2018-12-15T06:47:08.183Z,71.00
2018-12-15T06:48:11.412Z,70.20
2018-12-15T06:49:14.650Z,70.70
2018-12-15T06:50:17.964Z,70.60
2018-12-15T06:51:21.240Z,70.60
2018-12-15T06:52:24.505Z,70.70
2018-12-15T06:53:27.726Z,70.70
2018-12-15T06:54:30.976Z,70.60
2018-12-15T06:55:34.241Z,70.70
2018-12-15T06:56:37.457Z,70.60
2018-12-15T06:57:40.716Z,70.60
2018-12-15T06:58:43.978Z,70.80
2018-12-15T06:59:47.226Z,70.80
2018-12-15T07:00:50.459Z,70.60
2018-12-15T07:01:53.992Z,70.50
2018-12-15T07:02:57.341Z,71.30
2018-12-15T07:04:00.574Z,70.60
2018-12-15T07:05:04.368Z,70.40
2018-12-15T07:06:08.331Z,70.20
2018-12-15T07:07:11.625Z,70.20
2018-12-15T07:08:14.903Z,70.00
2018-12-15T07:09:18.116Z,70.00
2018-12-15T07:10:21.359Z,70.00
2018-12-15T07:11:24.608Z,69.80
2018-12-15T07:12:27.872Z,70.00
2018-12-15T07:13:31.111Z,70.00
2018-12-15T07:14:34.349Z,70.10
2018-12-15T07:15:37.840Z,70.10
2018-12-15T07:16:41.210Z,70.00
2018-12-15T07:17:45.129Z,70.10
2018-12-15T07:18:49.988Z,70.20
2018-12-15T07:19:53.481Z,70.20
2018-12-15T07:20:56.745Z,70.40
2018-12-15T07:21:59.976Z,70.30
2018-12-15T07:23:03.239Z,70.20
2018-12-15T07:24:06.518Z,70.20
2018-12-15T07:25:09.764Z,70.00
2018-12-15T07:26:13.014Z,70.00
2018-12-15T07:27:16.866Z,70.20
2018-12-15T07:28:20.118Z,70.30
2018-12-15T07:29:23.384Z,70.20
2018-12-15T07:30:27.011Z,70.30
2018-12-15T07:31:30.325Z,70.40
2018-12-15T07:32:34.325Z,70.40
2018-12-15T07:33:37.574Z,70.40
2018-12-15T07:34:40.841Z,70.50
2018-12-15T07:35:44.056Z,70.50
2018-12-15T07:36:47.292Z,71.20
2018-12-15T07:37:50.628Z,70.40
2018-12-15T07:38:53.912Z,70.40
2018-12-15T07:39:57.152Z,70.40
2018-12-15T07:41:00.438Z,70.50
2018-12-15T07:42:03.738Z,70.40
2018-12-15T07:43:06.979Z,70.60
2018-12-15T07:44:10.213Z,70.50
2018-12-15T07:45:13.435Z,70.50
2018-12-15T07:46:16.799Z,70.50
2018-12-15T07:47:20.165Z,70.40
2018-12-15T07:48:23.735Z,70.40
2018-12-15T07:49:26.962Z,70.50
2018-12-15T07:50:30.196Z,70.50
2018-12-15T07:51:33.530Z,70.40
2018-12-15T07:52:37.512Z,70.40
2018-12-15T07:53:40.777Z,70.40
2018-12-15T07:54:44.007Z,70.40
2018-12-15T07:55:47.251Z,70.20
2018-12-15T07:56:50.511Z,70.10
2018-12-15T07:57:53.790Z,70.20
2018-12-15T07:58:57.013Z,70.10
2018-12-15T08:00:00.243Z,70.20
2018-12-15T08:01:03.596Z,70.20
2018-12-15T08:02:06.844Z,70.20
2018-12-15T08:03:10.168Z,70.40
2018-12-15T08:04:13.914Z,70.40
2018-12-15T08:05:17.256Z,70.40
2018-12-15T08:06:20.497Z,70.10
2018-12-15T08:07:23.878Z,70.10
2018-12-15T08:08:27.860Z,70.10
2018-12-15T08:09:31.111Z,70.00
2018-12-15T08:10:36.877Z,70.10
2018-12-15T08:11:45.697Z,70.20
2018-12-15T08:12:50.978Z,70.20
2018-12-15T08:14:04.036Z,70.10
2018-12-15T08:15:07.487Z,70.00
2018-12-15T08:16:10.722Z,70.00
2018-12-15T08:17:13.952Z,70.00
2018-12-15T08:18:17.195Z,69.80
2018-12-15T08:19:20.455Z,69.80
2018-12-15T08:20:23.789Z,70.00
2018-12-15T08:21:27.020Z,70.10
2018-12-15T08:22:30.257Z,70.20
2018-12-15T08:23:33.496Z,70.90
2018-12-15T08:24:36.720Z,70.20
2018-12-15T08:25:40.014Z,70.40
2018-12-15T08:26:43.251Z,70.50
2018-12-15T08:27:47.347Z,70.40
2018-12-15T08:28:51.376Z,70.20
2018-12-15T08:29:54.833Z,70.40
2018-12-15T08:30:58.877Z,70.20
2018-12-15T08:32:02.560Z,70.20
2018-12-15T08:33:05.921Z,70.20
2018-12-15T08:34:09.180Z,70.20
2018-12-15T08:35:12.585Z,70.20
2018-12-15T08:36:15.919Z,70.10
2018-12-15T08:37:19.148Z,70.20
2018-12-15T08:38:22.390Z,70.10
2018-12-15T08:39:25.661Z,70.20
2018-12-15T08:40:29.064Z,70.20
2018-12-15T08:41:32.289Z,70.20
2018-12-15T08:42:35.530Z,70.20
2018-12-15T08:43:38.760Z,70.20
2018-12-15T08:44:42.003Z,70.40
2018-12-15T08:45:45.265Z,70.40
2018-12-15T08:46:48.506Z,70.30
2018-12-15T08:47:51.837Z,70.00
2018-12-15T08:48:55.174Z,70.10
2018-12-15T08:49:58.422Z,70.10
2018-12-15T08:51:01.877Z,70.00
2018-12-15T08:52:05.137Z,70.00
2018-12-15T08:53:08.388Z,70.00
2018-12-15T08:54:11.690Z,70.00
2018-12-15T08:55:14.927Z,69.90
2018-12-15T08:56:18.200Z,69.80
2018-12-15T08:57:24.965Z,69.80
2018-12-15T08:58:28.687Z,69.80
2018-12-15T08:59:31.914Z,69.80
2018-12-15T09:00:35.211Z,69.80
2018-12-15T09:01:38.458Z,69.90
2018-12-15T09:02:41.778Z,70.00
2018-12-15T09:03:45.042Z,69.80
2018-12-15T09:04:48.844Z,69.90
2018-12-15T09:05:52.082Z,70.10
2018-12-15T09:06:55.478Z,70.00
2018-12-15T09:07:58.703Z,70.10
2018-12-15T09:09:01.951Z,70.10
2018-12-15T09:10:05.272Z,70.30
2018-12-15T09:11:08.530Z,70.20
2018-12-15T09:12:11.857Z,70.40
2018-12-15T09:13:15.179Z,70.30
2018-12-15T09:14:18.411Z,70.20
2018-12-15T09:15:21.736Z,70.40
2018-12-15T09:16:26.616Z,70.40
2018-12-15T09:17:30.237Z,70.30
2018-12-15T09:18:33.488Z,70.20
2018-12-15T09:19:36.856Z,70.20
2018-12-15T09:20:40.106Z,70.20
2018-12-15T09:21:43.356Z,70.80
2018-12-15T09:22:46.639Z,70.20
2018-12-15T09:23:50.726Z,70.20
2018-12-15T09:24:55.610Z,70.30
2018-12-15T09:25:59.029Z,70.20
2018-12-15T09:27:02.331Z,70.10
2018-12-15T09:28:05.736Z,70.20
2018-12-15T09:29:09.018Z,70.10
2018-12-15T09:30:12.303Z,70.30
2018-12-15T09:31:15.547Z,70.30
2018-12-15T09:32:18.786Z,70.30
2018-12-15T09:33:22.055Z,70.30
2018-12-15T09:34:25.309Z,70.30
2018-12-15T09:35:28.641Z,70.30
2018-12-15T09:36:32.766Z,70.40
2018-12-15T09:37:36.066Z,70.20
2018-12-15T09:38:39.333Z,70.20
2018-12-15T09:39:42.597Z,70.20
2018-12-15T09:40:46.082Z,70.40
2018-12-15T09:41:49.331Z,70.30
2018-12-15T09:42:52.558Z,70.40
2018-12-15T09:43:55.801Z,70.40
2018-12-15T09:44:59.102Z,70.30
2018-12-15T09:46:02.416Z,70.30
2018-12-15T09:47:05.804Z,70.30
2018-12-15T09:48:09.080Z,70.20
2018-12-15T09:49:17.679Z,70.10
2018-12-15T09:50:17.648Z,70.10
2018-12-15T09:51:20.882Z,70.10
2018-12-15T09:52:24.117Z,70.10
2018-12-15T09:53:27.380Z,70.00
2018-12-15T09:54:30.629Z,69.90
2018-12-15T09:55:33.877Z,70.00
2018-12-15T09:56:37.157Z,70.00
2018-12-15T09:57:40.388Z,70.00
2018-12-15T09:58:43.654Z,69.90
2018-12-15T09:59:47.014Z,69.90
2018-12-15T10:00:50.297Z,69.80
2018-12-15T10:01:53.514Z,69.80
2018-12-15T10:02:56.821Z,69.80
2018-12-15T10:04:00.072Z,69.80
2018-12-15T10:05:04.387Z,69.80
2018-12-15T10:06:07.852Z,69.90
2018-12-15T10:07:11.498Z,69.90
2018-12-15T10:08:14.873Z,70.00
2018-12-15T10:09:18.219Z,70.10
2018-12-15T10:10:21.453Z,70.00
2018-12-15T10:11:24.676Z,70.00
2018-12-15T10:12:28.226Z,70.90
2018-12-15T10:13:31.520Z,70.20
2018-12-15T10:14:34.733Z,70.20
2018-12-15T10:15:38.129Z,70.20
2018-12-15T10:16:41.375Z,70.20
2018-12-15T10:17:45.603Z,70.40
2018-12-15T10:18:49.046Z,70.50
2018-12-15T10:19:52.602Z,70.50
2018-12-15T10:20:56.088Z,70.70
2018-12-15T10:21:59.388Z,70.70
2018-12-15T10:23:02.703Z,70.60
2018-12-15T10:24:06.064Z,70.60
2018-12-15T10:25:09.402Z,70.20
2018-12-15T10:26:12.649Z,70.60
2018-12-15T10:27:15.900Z,70.60
2018-12-15T10:28:19.135Z,70.70
2018-12-15T10:29:27.950Z,70.70
2018-12-15T10:30:37.018Z,70.50
2018-12-15T10:31:45.987Z,70.30
2018-12-15T10:32:51.283Z,70.20
2018-12-15T10:33:54.602Z,70.20
2018-12-15T10:34:58.038Z,70.20
2018-12-15T10:36:01.573Z,70.20
2018-12-15T10:37:04.840Z,70.10
2018-12-15T10:38:08.198Z,70.10
2018-12-15T10:39:11.482Z,70.10
2018-12-15T10:40:15.167Z,70.00
2018-12-15T10:41:18.415Z,70.00
2018-12-15T10:42:21.826Z,70.00
2018-12-15T10:43:25.036Z,70.20
2018-12-15T10:44:28.953Z,70.10
2018-12-15T10:45:32.333Z,70.10
2018-12-15T10:46:35.618Z,70.00
2018-12-15T10:47:38.859Z,70.00
2018-12-15T10:48:42.124Z,70.00
2018-12-15T10:49:45.470Z,70.00
2018-12-15T10:50:48.809Z,70.20
2018-12-15T10:51:52.339Z,70.20
2018-12-15T10:52:55.695Z,70.20
2018-12-15T10:53:59.080Z,70.20
2018-12-15T10:55:02.548Z,69.90
2018-12-15T10:56:05.877Z,69.70
2018-12-15T10:57:09.129Z,69.50
2018-12-15T10:58:13.577Z,69.30
2018-12-15T10:59:16.819Z,69.30
2018-12-15T11:00:26.353Z,69.00
2018-12-15T11:01:30.776Z,69.00
2018-12-15T11:02:35.125Z,68.90
2018-12-15T11:03:38.540Z,69.00
2018-12-15T11:04:41.949Z,69.00
2018-12-15T11:05:45.240Z,69.20
2018-12-15T11:06:48.515Z,69.20
2018-12-15T11:07:51.911Z,69.10
2018-12-15T11:08:55.153Z,69.20
2018-12-15T11:09:58.480Z,69.10
2018-12-15T11:11:01.784Z,69.20
2018-12-15T11:12:05.053Z,69.30
2018-12-15T11:13:08.359Z,69.40
2018-12-15T11:14:11.701Z,69.30
2018-12-15T11:15:14.926Z,69.30
2018-12-15T11:16:18.171Z,69.30
2018-12-15T11:17:21.410Z,69.30
2018-12-15T11:18:24.804Z,69.20
2018-12-15T11:19:28.432Z,69.00
2018-12-15T11:20:31.682Z,69.10
2018-12-15T11:21:34.936Z,69.00
2018-12-15T11:22:38.454Z,69.00
2018-12-15T11:23:41.670Z,68.90
2018-12-15T11:24:45.121Z,68.90
2018-12-15T11:25:48.331Z,69.00
2018-12-15T11:26:51.561Z,68.90
2018-12-15T11:27:54.821Z,69.00
2018-12-15T11:28:58.082Z,69.10
2018-12-15T11:30:01.403Z,69.30
2018-12-15T11:31:04.986Z,69.40
2018-12-15T11:32:08.244Z,69.30
2018-12-15T11:33:11.844Z,69.20
2018-12-15T11:34:15.155Z,69.00
2018-12-15T11:35:18.420Z,69.00
2018-12-15T11:36:21.655Z,68.70
2018-12-15T11:37:24.902Z,68.30
2018-12-15T11:38:28.144Z,68.30
2018-12-15T11:39:31.364Z,68.30
2018-12-15T11:40:34.621Z,68.30
2018-12-15T11:41:37.958Z,68.30
2018-12-15T11:42:41.205Z,68.40
2018-12-15T11:43:44.481Z,68.50
2018-12-15T11:44:47.870Z,68.50
2018-12-15T11:45:51.190Z,68.30
2018-12-15T11:46:54.447Z,68.30
2018-12-15T11:47:57.736Z,68.20
2018-12-15T11:49:01.245Z,68.20
2018-12-15T11:50:04.849Z,68.30
2018-12-15T11:51:08.092Z,68.40
2018-12-15T11:52:11.562Z,68.50
2018-12-15T11:53:14.824Z,68.50
2018-12-15T11:54:18.049Z,68.50
2018-12-15T11:55:22.146Z,68.50
2018-12-15T11:56:25.413Z,68.50
2018-12-15T11:57:28.741Z,68.30
2018-12-15T11:58:32.045Z,68.20
2018-12-15T11:59:35.312Z,68.20
2018-12-15T12:00:39.795Z,68.20
2018-12-15T12:01:43.235Z,68.10
2018-12-15T12:02:46.495Z,68.00
2018-12-15T12:03:49.793Z,68.20
2018-12-15T12:04:53.056Z,68.20
2018-12-15T12:05:56.293Z,68.20
2018-12-15T12:06:59.547Z,68.20
2018-12-15T12:08:02.884Z,68.30
2018-12-15T12:09:06.881Z,68.10
2018-12-15T12:10:10.300Z,68.00
2018-12-15T12:11:13.587Z,67.80
2018-12-15T12:12:18.388Z,67.60
2018-12-15T12:13:22.384Z,67.60
2018-12-15T12:14:25.693Z,67.50
2018-12-15T12:15:28.930Z,67.40
2018-12-15T12:16:32.262Z,67.50
2018-12-15T12:17:36.488Z,67.50
2018-12-15T12:18:39.897Z,68.10
2018-12-15T12:19:50.023Z,67.40
2018-12-15T12:20:49.073Z,67.40
2018-12-15T12:21:52.310Z,67.50
2018-12-15T12:22:55.652Z,67.50
2018-12-15T12:23:58.894Z,67.40
2018-12-15T12:25:02.482Z,67.40
2018-12-15T12:26:05.807Z,67.50
2018-12-15T12:27:09.066Z,67.60
2018-12-15T12:28:12.341Z,67.60
2018-12-15T12:29:15.650Z,67.60
2018-12-15T12:30:19.033Z,67.50
2018-12-15T12:31:22.516Z,67.40
2018-12-15T12:32:25.879Z,67.30
2018-12-15T12:33:29.118Z,67.40
2018-12-15T12:34:32.383Z,67.50
2018-12-15T12:35:35.726Z,67.80
2018-12-15T12:36:39.120Z,67.40
2018-12-15T12:37:42.503Z,67.40
2018-12-15T12:38:46.106Z,67.50
2018-12-15T12:39:49.483Z,67.50
2018-12-15T12:40:52.852Z,67.60
2018-12-15T12:41:56.220Z,67.50
2018-12-15T12:42:59.676Z,67.40
2018-12-15T12:44:03.037Z,67.30
2018-12-15T12:45:06.797Z,67.10
2018-12-15T12:46:10.224Z,67.20
2018-12-15T12:47:13.510Z,67.20
2018-12-15T12:48:16.812Z,67.20
2018-12-15T12:49:20.055Z,67.00
2018-12-15T12:50:23.346Z,67.00
2018-12-15T12:51:26.709Z,67.00
2018-12-15T12:52:30.011Z,66.90
2018-12-15T12:53:33.275Z,67.00
2018-12-15T12:54:36.593Z,67.20
2018-12-15T12:55:40.335Z,67.90
2018-12-15T12:56:43.673Z,67.20
2018-12-15T12:57:46.940Z,67.10
2018-12-15T12:58:50.368Z,67.00
2018-12-15T12:59:53.703Z,66.80
2018-12-15T13:00:56.947Z,66.90
2018-12-15T13:02:00.315Z,66.90
2018-12-15T13:03:03.583Z,66.70
2018-12-15T13:04:06.908Z,66.80
2018-12-15T13:05:10.205Z,66.80
2018-12-15T13:06:13.395Z,66.90
2018-12-15T13:07:16.657Z,66.90
2018-12-15T13:08:19.917Z,66.80
2018-12-15T13:09:23.913Z,66.70
2018-12-15T13:10:27.157Z,66.70
2018-12-15T13:11:30.437Z,66.70
2018-12-15T13:12:33.762Z,66.60
2018-12-15T13:13:37.041Z,66.60
2018-12-15T13:14:40.390Z,66.50
2018-12-15T13:15:43.630Z,66.50
2018-12-15T13:16:46.878Z,66.60
2018-12-15T13:17:50.287Z,66.60
2018-12-15T13:18:53.554Z,66.70
2018-12-15T13:20:03.434Z,66.70
2018-12-15T13:21:02.241Z,66.70
2018-12-15T13:22:06.687Z,66.60
2018-12-15T13:23:09.966Z,66.80
2018-12-15T13:24:13.397Z,66.70
2018-12-15T13:25:16.693Z,66.80
2018-12-15T13:26:19.955Z,66.90
2018-12-15T13:27:23.349Z,66.80
2018-12-15T13:28:26.642Z,66.80
2018-12-15T13:29:29.922Z,66.80
2018-12-15T13:30:34.765Z,66.80
2018-12-15T13:31:38.179Z,66.70
2018-12-15T13:32:41.575Z,66.60
2018-12-15T13:33:46.429Z,66.70
2018-12-15T13:34:50.293Z,66.70
2018-12-15T13:35:54.299Z,66.60
2018-12-15T13:36:57.553Z,66.70